Time;durP1;ratioP1;P1;durP2;ratioP2;P2;SDS_P1;SDS_P2;PMS_P1;PMS_P2;Temp;Humidity;BMP_temperature;BMP_pressure;BME280_temperature;BME280_humidity;BME280_pressure;Samples;Min_cycle;Max_cycle;Signal;HPM_P1;HPM_P2
2021/08/07 00:02:05;;;;;;;;;;;;;;;16.34;83.76;98963.50;5135737;27;20375;-72
2021/08/07 00:04:34;;;;;;;;;;;;;;;16.20;83.56;98964.88;5136508;27;19923;-72
2021/08/07 00:07:03;;;;;;;;;;;;;;;16.12;83.71;98964.31;5136494;27;19963;-72
2021/08/07 00:09:32;;;;;;;;;;;;;;;16.16;84.20;98963.31;5136581;27;20049;-72
2021/08/07 00:12:02;;;;;;;;;;;;;;;16.22;84.40;98963.91;5136717;27;20370;-72
2021/08/07 00:14:31;;;;;;;;;;;;;;;16.32;84.45;98964.44;5136009;27;20366;-72
2021/08/07 00:17:00;;;;;;;;;;;;;;;16.34;84.24;98967.81;5136282;27;19923;-72
2021/08/07 00:19:32;;;;;;;;;;;;;;;16.38;84.24;98964.22;5135850;27;20397;-72
2021/08/07 00:22:00;;;;;;;;;;;;;;;16.22;84.49;98968.25;5136189;27;19927;-72
2021/08/07 00:24:29;;;;;;;;;;;;;;;16.29;84.55;98974.88;5135963;27;20326;-72
2021/08/07 00:26:58;;;;;;;;;;;;;;;16.27;83.94;98971.50;5135782;27;19927;-71
2021/08/07 00:29:27;;;;;;;;;;;;;;;16.20;84.51;98975.16;5134451;27;20327;-71
2021/08/07 00:31:55;;;;;;;;;;;;;;;16.22;84.45;98973.41;5136045;27;19927;-72
2021/08/07 00:34:24;;;;;;;;;;;;;;;16.01;83.86;98973.22;5136001;27;19962;-72
2021/08/07 00:36:58;;;;;;;;;;;;;;;15.85;84.36;98979.81;5136003;27;20389;-72
2021/08/07 00:39:28;;;;;;;;;;;;;;;15.86;84.54;98975.50;5135745;27;19923;-72
2021/08/07 00:41:57;;;;;;;;;;;;;;;15.86;84.77;98973.75;5117143;27;20370;-71
2021/08/07 00:44:27;;;;;;;;;;;;;;;15.88;84.72;98969.38;5134236;27;19967;-71
2021/08/07 00:46:58;;;;;;;;;;;;;;;15.80;84.68;98984.25;5134897;27;20416;-72
2021/08/07 00:49:30;;;;;;;;;;;;;;;15.78;84.93;98988.63;5134235;27;20021;-71
2021/08/07 00:52:01;;;;;;;;;;;;;;;15.90;85.30;98990.78;5134458;27;20393;-72
2021/08/07 00:54:31;;;;;;;;;;;;;;;15.83;85.20;98991.88;5134129;27;20006;-72
2021/08/07 00:57:07;;;;;;;;;;;;;;;15.87;85.00;98984.88;5135061;27;20327;-71
2021/08/07 00:59:39;;;;;;;;;;;;;;;15.83;85.10;98986.72;5134804;27;19924;-71
2021/08/07 01:02:11;;;;;;;;;;;;;;;15.79;85.39;98989.44;5134389;27;19988;-71
2021/08/07 01:04:49;;;;;;;;;;;;;;;15.91;85.60;98989.03;5135998;27;20030;-72
2021/08/07 01:07:25;;;;;;;;;;;;;;;15.85;85.34;98987.53;5116856;27;20370;-72
2021/08/07 01:10:01;;;;;;;;;;;;;;;15.87;85.54;98983.16;5117057;27;19962;-72
2021/08/07 01:12:38;;;;;;;;;;;;;;;15.87;85.65;98983.16;5116923;27;19962;-72
2021/08/07 01:15:09;;;;;;;;;;;;;;;15.88;85.54;98984.81;5135410;27;20335;-71
2021/08/07 01:17:38;;;;;;;;;;;;;;;15.78;85.62;98983.47;5135664;27;19924;-71
2021/08/07 01:20:12;;;;;;;;;;;;;;;15.76;85.75;98986.97;5133784;28;19977;-72
2021/08/07 01:22:57;;;;;;;;;;;;;;;15.75;85.59;98993.00;5135340;27;19927;-72
2021/08/07 01:25:32;;;;;;;;;;;;;;;15.67;85.95;98988.09;5133981;28;19953;-72
2021/08/07 01:28:04;;;;;;;;;;;;;;;15.73;85.67;98990.50;5116394;28;20014;-72
2021/08/07 01:30:36;;;;;;;;;;;;;;;15.76;85.53;98992.97;5133759;28;20382;-72
2021/08/07 01:33:05;;;;;;;;;;;;;;;15.74;85.55;99002.44;5134029;28;19923;-72
2021/08/07 01:35:38;;;;;;;;;;;;;;;15.72;85.67;99004.25;5133989;28;19927;-71
2021/08/07 01:38:10;;;;;;;;;;;;;;;15.64;85.61;99016.53;5133965;28;19923;-71
2021/08/07 01:40:50;;;;;;;;;;;;;;;15.69;85.46;99003.50;5134969;28;19923;-72
2021/08/07 01:43:25;;;;;;;;;;;;;;;15.88;85.62;99010.56;5133904;28;19923;-71
2021/08/07 01:45:59;;;;;;;;;;;;;;;15.85;85.31;99005.53;5133580;28;19924;-71
2021/08/07 01:48:41;;;;;;;;;;;;;;;15.85;85.51;99002.13;5134078;28;19955;-71
2021/08/07 01:51:21;;;;;;;;;;;;;;;15.89;85.41;99001.97;5133542;28;19931;-71
2021/08/07 01:53:56;;;;;;;;;;;;;;;15.69;85.06;99008.66;5133567;28;19924;-72
2021/08/07 01:56:29;;;;;;;;;;;;;;;15.59;85.17;99008.09;5133457;28;20294;-72
2021/08/07 01:59:05;;;;;;;;;;;;;;;15.54;85.09;98999.69;5133799;28;20332;-71
2021/08/07 02:01:36;;;;;;;;;;;;;;;15.49;85.44;99003.28;5133614;28;20015;-72
2021/08/07 02:04:09;;;;;;;;;;;;;;;15.36;85.63;98995.91;5133308;28;20326;-71
2021/08/07 02:06:46;;;;;;;;;;;;;;;15.38;85.68;98998.44;5133368;28;19924;-72
2021/08/07 02:09:18;;;;;;;;;;;;;;;15.26;85.49;99004.81;5134510;27;19923;-71
2021/08/07 02:11:55;;;;;;;;;;;;;;;15.31;85.83;99002.09;5133523;28;19972;-71
2021/08/07 02:14:29;;;;;;;;;;;;;;;15.36;85.62;98998.50;5133670;28;19976;-71
2021/08/07 02:17:01;;;;;;;;;;;;;;;15.39;85.76;99000.13;5133355;28;19924;-71
2021/08/07 02:19:30;;;;;;;;;;;;;;;15.32;85.52;98998.63;5133778;28;20263;-71
2021/08/07 02:22:00;;;;;;;;;;;;;;;15.19;85.39;98997.31;5134474;27;19924;-71
2021/08/07 02:24:30;;;;;;;;;;;;;;;15.14;85.48;99004.34;5133168;27;19923;-71
2021/08/07 02:27:01;;;;;;;;;;;;;;;15.02;85.29;98990.09;5136931;27;19972;-72
2021/08/07 02:29:34;;;;;;;;;;;;;;;15.02;85.65;98999.56;5137106;27;19930;-71
2021/08/07 02:32:11;;;;;;;;;;;;;;;15.01;85.49;98997.88;5136889;27;19923;-71
2021/08/07 02:34:48;;;;;;;;;;;;;;;15.12;85.80;98991.53;5137223;27;20438;-72
2021/08/07 02:37:25;;;;;;;;;;;;;;;15.23;85.47;98992.06;5136770;27;20321;-71
2021/08/07 02:39:55;;;;;;;;;;;;;;;15.37;85.61;98987.34;5136762;27;19932;-71
2021/08/07 02:42:24;;;;;;;;;;;;;;;15.54;85.50;98994.53;5136617;27;19924;-71
2021/08/07 02:44:56;;;;;;;;;;;;;;;15.62;85.12;98987.41;5136496;27;19930;-71
2021/08/07 02:47:27;;;;;;;;;;;;;;;15.66;84.79;98993.31;5136666;27;19930;-71
2021/08/07 02:50:01;;;;;;;;;;;;;;;15.78;84.53;98993.75;5136637;27;19934;-71
2021/08/07 02:52:32;;;;;;;;;;;;;;;15.82;84.27;98995.34;5136666;27;19923;-72
2021/08/07 02:55:03;;;;;;;;;;;;;;;15.86;83.99;98993.50;5136498;27;19969;-72
2021/08/07 02:57:33;;;;;;;;;;;;;;;15.69;83.45;98994.03;5137251;27;19931;-71
2021/08/07 03:00:06;;;;;;;;;;;;;;;15.52;83.79;98996.34;5136681;27;20369;-71
2021/08/07 03:02:37;;;;;;;;;;;;;;;15.43;83.82;99010.28;5136746;27;19923;-71
2021/08/07 03:05:06;;;;;;;;;;;;;;;15.47;83.90;99010.22;5137691;27;19923;-71
2021/08/07 03:07:38;;;;;;;;;;;;;;;15.35;83.75;99001.13;5136550;27;19968;-71
2021/08/07 03:10:09;;;;;;;;;;;;;;;15.24;83.72;99005.72;5118971;27;19967;-71
2021/08/07 03:12:38;;;;;;;;;;;;;;;15.06;83.72;99011.44;5136352;27;19924;-71
2021/08/07 03:15:09;;;;;;;;;;;;;;;14.94;84.30;99016.94;5136346;27;19923;-71
2021/08/07 03:17:38;;;;;;;;;;;;;;;14.92;84.20;99003.28;5137525;27;19923;-71
2021/08/07 03:20:08;;;;;;;;;;;;;;;15.03;84.78;99006.38;5135905;27;20386;-71
2021/08/07 03:22:42;;;;;;;;;;;;;;;15.13;85.04;99013.78;5135935;27;19923;-71
2021/08/07 03:25:11;;;;;;;;;;;;;;;15.13;84.76;99003.50;5136862;27;19923;-71
2021/08/07 03:27:42;;;;;;;;;;;;;;;15.13;84.65;99007.78;5118360;27;19927;-72
2021/08/07 03:30:13;;;;;;;;;;;;;;;15.10;85.06;99006.16;5135776;27;19954;-71
2021/08/07 03:32:42;;;;;;;;;;;;;;;14.98;84.77;99018.53;5137365;27;19930;-71
2021/08/07 03:35:11;;;;;;;;;;;;;;;14.94;84.96;99011.78;5135635;27;19924;-71
2021/08/07 03:37:42;;;;;;;;;;;;;;;15.14;85.21;99014.63;5135950;27;19923;-72
2021/08/07 03:40:12;;;;;;;;;;;;;;;15.14;84.58;99010.31;5135839;27;19968;-72
2021/08/07 03:42:45;;;;;;;;;;;;;;;15.01;84.72;99015.88;5135428;27;19927;-72
2021/08/07 03:45:22;;;;;;;;;;;;;;;15.04;84.70;99015.78;5135392;27;19928;-72
2021/08/07 03:47:56;;;;;;;;;;;;;;;14.95;84.93;99027.16;5135356;27;19924;-72
2021/08/07 03:50:34;;;;;;;;;;;;;;;14.93;84.92;99025.50;5135419;27;20435;-72
2021/08/07 03:53:06;;;;;;;;;;;;;;;15.13;85.62;99023.22;5135242;27;20295;-72
2021/08/07 03:55:35;;;;;;;;;;;;;;;15.17;85.48;99024.81;5135395;27;19949;-72
2021/08/07 03:58:06;;;;;;;;;;;;;;;15.13;85.52;99023.22;5135848;27;19923;-72
2021/08/07 04:00:49;;;;;;;;;;;;;;;15.17;85.32;99035.09;5135125;27;19923;-72
2021/08/07 04:03:26;;;;;;;;;;;;;;;15.34;85.70;99032.84;5135335;27;19923;-72
2021/08/07 04:05:59;;;;;;;;;;;;;;;15.51;85.51;99033.22;5117820;27;19923;-71
2021/08/07 04:08:29;;;;;;;;;;;;;;;15.64;85.46;99026.81;5135177;27;19924;-72
2021/08/07 04:10:58;;;;;;;;;;;;;;;15.63;84.86;99037.97;5136048;27;19994;-71
2021/08/07 04:13:31;;;;;;;;;;;;;;;15.69;85.00;99040.34;5134899;27;20375;-71
2021/08/07 04:16:05;;;;;;;;;;;;;;;15.77;84.87;99040.09;5135168;27;19959;-72
2021/08/07 04:18:34;;;;;;;;;;;;;;;15.81;84.56;99039.97;5136332;27;19924;-72
2021/08/07 04:21:03;;;;;;;;;;;;;;;15.89;84.33;99043.13;5136226;27;19927;-72
2021/08/07 04:23:31;;;;;;;;;;;;;;;15.99;84.12;99044.53;5136433;27;19924;-72
2021/08/07 04:26:01;;;;;;;;;;;;;;;15.98;83.80;99029.97;5134472;27;20378;-72
2021/08/07 04:28:31;;;;;;;;;;;;;;;15.96;83.38;99029.16;5135736;27;19956;-72
2021/08/07 04:30:59;;;;;;;;;;;;;;;16.15;83.57;99033.72;5134749;27;20298;-74
2021/08/07 04:33:33;;;;;;;;;;;;;;;16.23;83.36;99029.16;5134558;27;19924;-73
2021/08/07 04:36:03;;;;;;;;;;;;;;;16.33;83.12;99027.94;5135604;27;19923;-73
2021/08/07 04:38:33;;;;;;;;;;;;;;;16.46;82.88;99018.91;5134393;27;19973;-73
2021/08/07 04:41:02;;;;;;;;;;;;;;;16.60;82.54;99032.19;5134529;27;19968;-74
2021/08/07 04:43:35;;;;;;;;;;;;;;;16.72;82.24;99031.75;5134346;27;19923;-73
2021/08/07 04:46:04;;;;;;;;;;;;;;;16.72;81.78;99042.03;5134097;27;19930;-72
2021/08/07 04:48:35;;;;;;;;;;;;;;;16.72;81.67;99037.72;5134980;27;19931;-72
2021/08/07 04:51:08;;;;;;;;;;;;;;;16.73;81.48;99048.88;5134226;27;19970;-72
2021/08/07 04:53:41;;;;;;;;;;;;;;;16.73;81.58;99044.56;5134447;27;19931;-72
2021/08/07 04:56:15;;;;;;;;;;;;;;;16.81;81.35;99041.72;5133955;27;20401;-72
2021/08/07 04:58:44;;;;;;;;;;;;;;;16.94;81.44;99048.09;5135863;27;19963;-72
2021/08/07 05:01:16;;;;;;;;;;;;;;;17.14;81.17;99045.63;5134076;27;19962;-72
2021/08/07 05:03:48;;;;;;;;;;;;;;;17.22;80.87;99053.94;5134317;27;19924;-72
2021/08/07 05:06:18;;;;;;;;;;;;;;;17.34;81.17;99053.47;5151101;27;20050;-74
2021/08/07 05:08:49;;;;;;;;;;;;;;;17.41;80.72;99057.50;5135175;27;20378;-76
2021/08/07 05:11:19;;;;;;;;;;;;;;;17.37;80.26;99058.47;5133912;27;19923;-74
2021/08/07 05:13:48;;;;;;;;;;;;;;;17.48;80.69;99059.81;5133828;27;19924;-73
2021/08/07 05:16:19;;;;;;;;;;;;;;;17.62;80.36;99055.00;5134044;27;20379;-73
2021/08/07 05:18:50;;;;;;;;;;;;;;;17.77;79.99;99056.97;5133644;27;20449;-73
2021/08/07 05:21:18;;;;;;;;;;;;;;;17.91;79.88;99055.53;5134886;27;19923;-73
2021/08/07 05:23:47;;;;;;;;;;;;;;;17.99;79.12;99062.97;5133725;28;19923;-74
2021/08/07 05:26:16;;;;;;;;;;;;;;;18.00;78.91;99055.13;5133627;28;19974;-73
2021/08/07 05:28:45;;;;;;;;;;;;;;;17.99;78.61;99057.81;5134837;27;20010;-74
2021/08/07 05:31:14;;;;;;;;;;;;;;;17.75;78.56;99058.78;5134290;28;20026;-73
2021/08/07 05:33:45;;;;;;;;;;;;;;;17.85;78.73;99055.75;5133932;28;19931;-75
2021/08/07 05:36:16;;;;;;;;;;;;;;;18.00;78.68;99056.88;5133704;28;19923;-75
2021/08/07 05:38:45;;;;;;;;;;;;;;;18.28;78.64;99049.69;5135213;27;19931;-75
2021/08/07 05:41:14;;;;;;;;;;;;;;;18.46;78.28;99054.09;5133809;28;19923;-74
2021/08/07 05:43:46;;;;;;;;;;;;;;;18.63;77.87;99054.22;5133894;28;20289;-75
2021/08/07 05:46:15;;;;;;;;;;;;;;;18.75;77.41;99047.66;5133628;28;19924;-75
2021/08/07 05:48:44;;;;;;;;;;;;;;;18.83;77.21;99048.19;5133562;28;19923;-74
2021/08/07 05:51:13;;;;;;;;;;;;;;;18.94;76.81;99060.63;5134679;28;19923;-75
2021/08/07 05:53:44;;;;;;;;;;;;;;;19.01;76.51;99051.69;5133469;28;19969;-75
2021/08/07 05:56:14;;;;;;;;;;;;;;;19.07;76.09;99047.09;5133733;28;19931;-74
2021/08/07 05:58:42;;;;;;;;;;;;;;;19.17;75.63;99052.69;5133578;28;20443;-75
2021/08/07 06:01:12;;;;;;;;;;;;;;;19.06;75.66;99044.56;5135935;27;19927;-75
2021/08/07 06:03:41;;;;;;;;;;;;;;;19.11;75.85;99058.97;5137948;27;19931;-75
2021/08/07 06:06:10;;;;;;;;;;;;;;;19.37;75.70;99058.66;5138072;27;19924;-75
2021/08/07 06:08:39;;;;;;;;;;;;;;;19.57;75.37;99060.31;5137329;27;19977;-75
2021/08/07 06:11:11;;;;;;;;;;;;;;;19.62;74.64;99055.75;5137355;27;19931;-75
2021/08/07 06:13:40;;;;;;;;;;;;;;;19.66;74.94;99059.88;5137630;27;19937;-75
2021/08/07 06:16:09;;;;;;;;;;;;;;;19.77;74.50;99054.19;5138254;27;19923;-76
2021/08/07 06:18:38;;;;;;;;;;;;;;;19.74;74.44;99059.50;5137042;27;20320;-76
2021/08/07 06:21:08;;;;;;;;;;;;;;;19.67;74.40;99069.31;5136983;27;20413;-76
2021/08/07 06:23:37;;;;;;;;;;;;;;;19.52;74.49;99075.22;5137197;27;19931;-74
2021/08/07 06:26:05;;;;;;;;;;;;;;;19.47;74.41;99072.00;5138214;27;20339;-77
2021/08/07 06:28:38;;;;;;;;;;;;;;;19.73;74.64;99068.19;5136804;27;20378;-74
2021/08/07 06:31:10;;;;;;;;;;;;;;;20.08;74.66;99081.09;5138360;27;20373;-75
2021/08/07 06:33:41;;;;;;;;;;;;;;;20.13;74.13;99080.06;5137195;27;19965;-76
2021/08/07 06:36:11;;;;;;;;;;;;;;;20.15;74.10;99081.66;5136744;27;20010;-75
2021/08/07 06:38:42;;;;;;;;;;;;;;;20.28;73.38;99076.72;5136802;27;19924;-75
2021/08/07 06:41:11;;;;;;;;;;;;;;;19.92;73.33;99082.78;5136689;27;20386;-75
2021/08/07 06:43:53;;;;;;;;;;;;;;;19.73;74.10;99089.75;5138189;27;19923;-75
2021/08/07 06:46:33;;;;;;;;;;;;;;;19.86;74.89;99083.09;5136502;27;19932;-74
2021/08/07 06:49:03;;;;;;;;;;;;;;;20.10;74.61;99073.28;5136873;27;19927;-75
2021/08/07 06:51:32;;;;;;;;;;;;;;;20.17;74.17;99077.25;5136431;27;19923;-75
2021/08/07 06:54:02;;;;;;;;;;;;;;;20.48;73.99;99073.97;5137667;27;19952;-75
2021/08/07 06:56:33;;;;;;;;;;;;;;;20.56;72.85;99083.03;5136726;27;19934;-75
2021/08/07 06:59:05;;;;;;;;;;;;;;;20.44;72.86;99081.06;5136482;27;20374;-75
2021/08/07 07:01:34;;;;;;;;;;;;;;;20.41;73.03;99078.66;5136980;27;19930;-73
2021/08/07 07:04:04;;;;;;;;;;;;;;;20.58;72.65;99080.38;5136392;27;19927;-74
2021/08/07 07:06:33;;;;;;;;;;;;;;;20.75;72.10;99082.97;5136342;27;19934;-73
2021/08/07 07:09:02;;;;;;;;;;;;;;;20.76;71.66;99089.81;5137577;27;19964;-73
2021/08/07 07:11:31;;;;;;;;;;;;;;;20.97;71.62;99086.09;5135678;27;19929;-72
2021/08/07 07:14:01;;;;;;;;;;;;;;;21.28;71.02;99088.78;5136686;27;19963;-74
2021/08/07 07:16:33;;;;;;;;;;;;;;;21.32;69.79;99089.47;5137173;27;20010;-74
2021/08/07 07:19:02;;;;;;;;;;;;;;;21.45;70.18;99089.66;5136222;27;19924;-74
2021/08/07 07:21:31;;;;;;;;;;;;;;;21.62;69.29;99092.97;5135921;27;19930;-74
2021/08/07 07:24:00;;;;;;;;;;;;;;;21.76;68.77;99094.84;5118704;27;20332;-75
2021/08/07 07:26:30;;;;;;;;;;;;;;;21.98;68.53;99100.50;5136930;27;19929;-74
2021/08/07 07:29:00;;;;;;;;;;;;;;;21.92;68.03;99098.28;5137122;27;19924;-74
2021/08/07 07:31:30;;;;;;;;;;;;;;;21.82;67.48;99094.47;5135680;27;20377;-74
2021/08/07 07:34:02;;;;;;;;;;;;;;;21.99;67.55;99099.59;5118904;27;20290;-74
2021/08/07 07:36:31;;;;;;;;;;;;;;;21.87;67.13;99089.91;5136820;27;19923;-74
2021/08/07 07:39:00;;;;;;;;;;;;;;;21.99;67.56;99087.44;5135452;27;19924;-74
2021/08/07 07:41:29;;;;;;;;;;;;;;;22.19;67.65;99098.47;5136688;27;19923;-75
2021/08/07 07:43:58;;;;;;;;;;;;;;;22.29;67.35;99097.84;5136955;27;19923;-75
2021/08/07 07:46:28;;;;;;;;;;;;;;;22.46;67.05;99094.25;5136474;27;19929;-74
2021/08/07 07:48:57;;;;;;;;;;;;;;;22.51;66.72;99098.28;5136379;27;19923;-74
2021/08/07 07:51:27;;;;;;;;;;;;;;;22.54;66.77;99105.91;5135211;27;20013;-74
2021/08/07 07:53:57;;;;;;;;;;;;;;;22.58;66.63;99101.34;5135532;27;19923;-74
2021/08/07 07:56:27;;;;;;;;;;;;;;;22.55;66.51;99096.34;5135091;27;20331;-74
2021/08/07 07:58:56;;;;;;;;;;;;;;;22.57;66.00;99105.75;5118001;27;19969;-74
2021/08/07 08:01:25;;;;;;;;;;;;;;;22.55;66.34;99101.56;5136628;27;19972;-74
2021/08/07 08:03:54;;;;;;;;;;;;;;;22.68;66.21;99092.97;5135000;27;19966;-75
2021/08/07 08:06:24;;;;;;;;;;;;;;;22.96;66.75;99101.72;5135058;27;19970;-74
2021/08/07 08:08:55;;;;;;;;;;;;;;;23.13;65.59;99104.16;5134898;27;20378;-74
2021/08/07 08:11:27;;;;;;;;;;;;;;;;;;5134953;27;19944;-75
2021/08/07 08:13:56;;;;;;;;;;;;;;;22.95;62.71;99094.84;5135049;27;19930;-75
2021/08/07 08:16:25;;;;;;;;;;;;;;;23.12;63.22;99092.91;5135029;27;19930;-74
2021/08/07 08:18:54;;;;;;;;;;;;;;;23.16;62.23;99101.34;5134785;27;19927;-75
2021/08/07 08:21:24;;;;;;;;;;;;;;;22.98;61.52;99105.91;5136207;27;20515;-76
2021/08/07 08:23:53;;;;;;;;;;;;;;;22.91;60.89;99101.16;5135218;27;19923;-75
2021/08/07 08:26:24;;;;;;;;;;;;;;;22.91;61.12;99095.97;5134585;27;19973;-74
2021/08/07 08:28:53;;;;;;;;;;;;;;;23.11;61.29;99095.56;5134336;27;19923;-75
2021/08/07 08:31:22;;;;;;;;;;;;;;;23.42;60.66;99090.19;5135785;27;20390;-76
2021/08/07 08:33:52;;;;;;;;;;;;;;;23.52;60.67;99096.50;5134364;27;19931;-76
2021/08/07 08:36:21;;;;;;;;;;;;;;;23.51;60.01;99089.63;5134814;27;19924;-77
2021/08/07 08:38:50;;;;;;;;;;;;;;;23.52;59.61;99091.28;5134314;27;19923;-77
2021/08/07 08:41:18;;;;;;;;;;;;;;;23.57;59.21;99098.81;5134327;27;19931;-76
2021/08/07 08:43:51;;;;;;;;;;;;;;;23.45;58.36;99100.41;5134392;27;19931;-77
2021/08/07 08:46:21;;;;;;;;;;;;;;;23.68;58.77;99096.38;5134563;27;19930;-78
2021/08/07 08:48:51;;;;;;;;;;;;;;;23.92;57.86;99090.41;5134230;27;19927;-77
2021/08/07 08:51:25;;;;;;;;;;;;;;;23.91;57.65;99099.19;5134235;27;19923;-76
2021/08/07 08:53:55;;;;;;;;;;;;;;;23.79;57.97;99097.34;5134558;27;20022;-77
2021/08/07 08:56:26;;;;;;;;;;;;;;;23.94;58.44;99093.78;5134057;27;19934;-77
2021/08/07 08:58:57;;;;;;;;;;;;;;;24.30;58.08;99079.28;5134406;27;19988;-77
2021/08/07 09:01:26;;;;;;;;;;;;;;;24.63;57.65;99083.09;5134446;27;19924;-77
2021/08/07 09:03:55;;;;;;;;;;;;;;;24.70;55.56;99085.28;5135154;27;20018;-76
2021/08/07 09:06:24;;;;;;;;;;;;;;;24.67;54.48;99078.47;5135499;27;20018;-77
2021/08/07 09:09:00;;;;;;;;;;;;;;;24.65;54.05;99085.59;5134087;27;19923;-77
2021/08/07 09:11:29;;;;;;;;;;;;;;;24.30;53.09;99084.50;5134289;27;19928;-77
2021/08/07 09:14:18;;;;;;;;;;;;;;;24.43;53.30;99085.34;5135438;27;19923;-76
2021/08/07 09:16:59;;;;;;;;;;;;;;;24.63;52.40;99088.31;5134055;27;19923;-76
2021/08/07 09:19:46;;;;;;;;;;;;;;;24.61;51.21;99086.75;5134145;27;20465;-76
2021/08/07 09:22:18;;;;;;;;;;;;;;;24.56;51.63;99086.22;5116684;28;19970;-76
2021/08/07 09:24:56;;;;;;;;;;;;;;;24.51;52.55;99083.91;5134297;28;19973;-76
2021/08/07 09:27:28;;;;;;;;;;;;;;;24.56;53.13;99086.22;5116601;28;19935;-76
2021/08/07 09:29:59;;;;;;;;;;;;;;;24.47;51.91;99081.63;5133770;28;19924;-77
2021/08/07 09:32:28;;;;;;;;;;;;;;;24.30;51.04;99079.28;5150886;27;19924;-76
2021/08/07 09:35:06;;;;;;;;;;;;;;;24.56;52.24;99071.41;5118720;27;19923;-76
2021/08/07 09:37:36;;;;;;;;;;;;;;;24.71;51.35;99069.53;5138275;27;19928;-76
2021/08/07 09:40:06;;;;;;;;;;;;;;;24.93;50.80;99059.28;5138298;27;19951;-76
2021/08/07 09:42:49;;;;;;;;;;;;;;;25.20;49.63;99054.75;5137985;27;19984;-76
2021/08/07 09:45:23;;;;;;;;;;;;;;;25.29;49.34;99046.28;5138159;27;19923;-76
2021/08/07 09:48:00;;;;;;;;;;;;;;;25.48;50.29;99045.00;5137943;27;19963;-76
2021/08/07 09:50:33;;;;;;;;;;;;;;;25.86;50.44;99040.44;5137783;27;19927;-77
2021/08/07 09:53:06;;;;;;;;;;;;;;;25.94;49.97;99043.31;5138852;27;19928;-76
2021/08/07 09:55:35;;;;;;;;;;;;;;;26.17;49.24;99045.13;5137654;27;19924;-77
2021/08/07 09:58:05;;;;;;;;;;;;;;;26.04;48.26;99049.53;5137860;27;20029;-76
2021/08/07 10:00:39;;;;;;;;;;;;;;;25.96;48.41;99046.69;5137448;27;19984;-76
2021/08/07 10:03:18;;;;;;;;;;;;;;;26.12;47.88;99031.53;5137796;27;19928;-76
2021/08/07 10:05:51;;;;;;;;;;;;;;;26.38;47.19;99038.25;5120274;27;19973;-76
2021/08/07 10:08:21;;;;;;;;;;;;;;;26.55;46.72;99034.38;5137270;27;20321;-76
2021/08/07 10:10:51;;;;;;;;;;;;;;;26.44;46.06;99032.56;5138814;27;19923;-77
2021/08/07 10:13:24;;;;;;;;;;;;;;;26.28;45.48;99032.06;5137326;27;19923;-76
2021/08/07 10:16:00;;;;;;;;;;;;;;;26.43;45.76;99032.69;5137251;27;19923;-77
2021/08/07 10:18:32;;;;;;;;;;;;;;;26.63;46.18;99031.16;5139040;27;19923;-76
2021/08/07 10:21:05;;;;;;;;;;;;;;;26.63;45.40;99025.94;5137167;27;20378;-77
2021/08/07 10:23:36;;;;;;;;;;;;;;;26.87;46.36;99021.44;5137110;27;19923;-77
2021/08/07 10:26:07;;;;;;;;;;;;;;;27.19;45.86;99025.81;5138501;27;19934;-76
2021/08/07 10:28:39;;;;;;;;;;;;;;;27.22;44.86;99029.97;5136933;27;20018;-75
2021/08/07 10:31:10;;;;;;;;;;;;;;;27.09;44.99;99024.06;5137014;27;19923;-76
2021/08/07 10:33:43;;;;;;;;;;;;;;;27.22;45.57;99030.81;5137406;27;20263;-76
2021/08/07 10:36:13;;;;;;;;;;;;;;;27.28;44.78;99024.28;5137177;27;19924;-76
2021/08/07 10:38:43;;;;;;;;;;;;;;;27.08;46.20;99027.63;5136742;27;19931;-77
2021/08/07 10:41:14;;;;;;;;;;;;;;;27.01;47.58;99029.06;5137984;27;19946;-76
2021/08/07 10:43:44;;;;;;;;;;;;;;;27.18;48.29;99025.94;5119447;27;19923;-77
2021/08/07 10:46:17;;;;;;;;;;;;;;;27.14;48.11;99027.97;5135766;27;19973;-76
2021/08/07 10:48:47;;;;;;;;;;;;;;;27.03;48.81;99027.97;5136941;27;20282;-75
2021/08/07 10:51:30;;;;;;;;;;;;;;;27.19;48.96;99027.59;5136912;27;19924;-76
2021/08/07 10:54:01;;;;;;;;;;;;;;;27.17;48.44;99026.88;5138304;27;19924;-76
2021/08/07 10:56:37;;;;;;;;;;;;;;;27.24;48.90;99028.06;5137691;27;19976;-76
2021/08/07 10:59:17;;;;;;;;;;;;;;;27.33;48.56;99035.19;5137806;27;19931;-76
2021/08/07 11:01:46;;;;;;;;;;;;;;;27.33;47.66;99027.31;5136312;27;20307;-75
2021/08/07 11:04:18;;;;;;;;;;;;;;;27.44;47.72;99029.97;5137656;27;19966;-75
2021/08/07 11:06:57;;;;;;;;;;;;;;;27.38;47.28;99027.81;5138610;27;19966;-76
2021/08/07 11:09:29;;;;;;;;;;;;;;;27.38;47.29;99019.16;5137458;27;20035;-75
2021/08/07 11:12:09;;;;;;;;;;;;;;;27.46;47.03;99011.50;5137631;27;20374;-77
2021/08/07 11:14:45;;;;;;;;;;;;;;;27.58;47.30;99006.09;5137967;27;19962;-76
2021/08/07 11:17:24;;;;;;;;;;;;;;;27.76;47.56;99009.81;5137447;27;19927;-76
2021/08/07 11:19:56;;;;;;;;;;;;;;;27.62;46.60;99007.50;5137631;27;20026;-77
2021/08/07 11:22:40;;;;;;;;;;;;;;;27.46;46.80;99007.09;5137286;27;20351;-77
2021/08/07 11:25:11;;;;;;;;;;;;;;;27.60;46.61;98998.94;5136940;27;19923;-77
2021/08/07 11:27:55;;;;;;;;;;;;;;;27.65;47.15;98998.56;5137422;27;19937;-76
2021/08/07 11:30:25;;;;;;;;;;;;;;;27.48;48.10;98999.09;5135670;27;19924;-76
2021/08/07 11:33:08;;;;;;;;;;;;;;;27.72;48.23;98982.19;5136077;27;19933;-76
2021/08/07 11:35:49;;;;;;;;;;;;;;;27.89;47.69;98978.19;5137831;27;20394;-77
2021/08/07 11:38:19;;;;;;;;;;;;;;;28.00;47.30;98975.53;5135865;27;19924;-75
2021/08/07 11:40:50;;;;;;;;;;;;;;;27.95;47.41;98976.84;5135532;27;19931;-77
2021/08/07 11:43:21;;;;;;;;;;;;;;;27.96;47.19;98968.00;5137029;27;19928;-76
2021/08/07 11:46:05;;;;;;;;;;;;;;;27.97;47.56;98965.28;5137372;27;20014;-76
2021/08/07 11:48:36;;;;;;;;;;;;;;;27.89;47.64;98970.31;5137018;27;20446;-74
2021/08/07 11:51:06;;;;;;;;;;;;;;;27.90;47.34;98975.44;5136712;27;19923;-73
2021/08/07 11:53:38;;;;;;;;;;;;;;;27.76;47.25;98972.31;5136805;27;19923;-76
2021/08/07 11:56:09;;;;;;;;;;;;;;;27.89;47.79;98967.69;5135230;27;19924;-75
2021/08/07 11:58:43;;;;;;;;;;;;;;;28.18;47.68;98960.03;5135366;27;20018;-78
2021/08/07 12:01:13;;;;;;;;;;;;;;;28.33;47.63;98958.75;5135229;27;19924;-77
2021/08/07 12:03:46;;;;;;;;;;;;;;;28.07;47.10;98960.13;5136491;27;20449;-70
2021/08/07 12:06:16;;;;;;;;;;;;;;;28.01;48.00;98952.75;5136631;27;19976;-77
2021/08/07 12:08:45;;;;;;;;;;;;;;;28.15;47.36;98952.41;5136050;27;19972;-75
2021/08/07 12:11:16;;;;;;;;;;;;;;;28.12;47.97;98952.69;5136097;27;19930;-75
2021/08/07 12:13:51;;;;;;;;;;;;;;;28.11;47.99;98951.00;5136445;27;19969;-76
2021/08/07 12:16:21;;;;;;;;;;;;;;;28.05;47.81;98946.28;5136269;27;19931;-75
2021/08/07 12:18:50;;;;;;;;;;;;;;;28.19;48.45;98943.34;5135987;27;19955;-76
2021/08/07 12:21:27;;;;;;;;;;;;;;;28.28;47.78;98943.38;5135933;27;19923;-75
2021/08/07 12:23:56;;;;;;;;;;;;;;;28.23;47.86;98939.47;5135908;27;19923;-73
2021/08/07 12:26:26;;;;;;;;;;;;;;;28.14;48.74;98929.75;5135861;27;19968;-73
2021/08/07 12:28:56;;;;;;;;;;;;;;;28.42;48.33;98924.66;5135844;27;19930;-76
2021/08/07 12:31:37;;;;;;;;;;;;;;;28.68;46.96;98924.22;5135998;27;19923;-78
2021/08/07 12:34:10;;;;;;;;;;;;;;;28.56;46.95;98920.84;5136114;27;19923;-74
2021/08/07 12:36:39;;;;;;;;;;;;;;;28.55;47.07;98927.06;5136072;27;20305;-74
2021/08/07 12:39:08;;;;;;;;;;;;;;;28.54;46.79;98917.50;5135588;27;19930;-76
2021/08/07 12:41:38;;;;;;;;;;;;;;;28.57;46.57;98919.88;5136350;27;20382;-78
2021/08/07 12:44:18;;;;;;;;;;;;;;;28.60;46.43;98911.78;5135684;27;19923;-75
2021/08/07 12:46:50;;;;;;;;;;;;;;;28.74;46.97;98907.94;5135909;27;20332;-79
2021/08/07 12:49:33;;;;;;;;;;;;;;;28.58;46.52;98893.47;5136211;27;20416;-78
2021/08/07 12:52:02;;;;;;;;;;;;;;;28.49;46.35;98896.91;5135609;27;19927;-78
2021/08/07 12:54:31;;;;;;;;;;;;;;;28.65;46.61;98898.25;5135518;27;19953;-79
2021/08/07 12:57:01;;;;;;;;;;;;;;;28.59;45.91;98894.31;5135442;27;20046;-78
2021/08/07 12:59:47;;;;;;;;;;;;;;;28.60;46.60;98880.25;5135688;27;19973;-78
2021/08/07 13:02:16;;;;;;;;;;;;;;;28.86;46.83;98876.16;5136230;27;19927;-79
2021/08/07 13:04:46;;;;;;;;;;;;;;;28.66;45.72;98874.44;5135289;27;19974;-78
2021/08/07 13:07:15;;;;;;;;;;;;;;;28.61;46.35;98868.78;5135552;27;19923;-80
2021/08/07 13:09:44;;;;;;;;;;;;;;;28.80;45.62;98871.44;5135060;27;19931;-78
2021/08/07 13:12:16;;;;;;;;;;;;;;;28.72;45.70;98870.47;5135371;27;19924;-78